Terminal Aerodrome Forecast
Issued by NWS

Home | Current Version | Previous Version | Text Only | Print | Product List | Glossary On
Versions: 1 2 3 4 5 6 7 8 9 10 11 12 13 14 15 16 17 18 19 20 21 22 23
000
FTUS42 KFFC 231002 AAB
TAFFTY
TAF AMD
KFTY 231002Z 2310/2406 VRB03KT 6SM -SHRA VCTS OVC008CB
      TEMPO 2310/2312 4SM -RA BKN004
     FM231200 VRB03KT 4SM -SHRA OVC006
     FM231500 22004KT 5SM -SHRA OVC008
     FM231600 27005KT P6SM -SHRA OVC012
     FM232000 24005KT P6SM VCSH BKN030=

USA.gov is the U.S. government's official web portal to all federal, state and local government web resources and services.